Rogers, AR (72758)

6:50 PM CST on December 28, 2014 (GMT -0600)
Southeast side of Rogers, Arkansas | Change Station
CLOSE
Current Station
Personal Weather Station
Location: Rogers, AR
Elevation: 1328 ft
Nearby Weather Stations

Elev 1328 ft 36.32 °N, 94.12 °W | Updated 4 seconds ago

Clear
Clear
27.5 °F
Feels Like 28 °F
N
0.0
Wind Variable Wind from NE
Gusts 0.0 mph

Today
High -- | Low -- °F
--% Chance of Precip.
Yesterday
High -- | Low -- °F
Precip. -- in
7:27 AM 5:09 PM
First Quarter, 53% visible
Pressure 30.18 in
Visibility 10.0 miles
Clouds Clear
Windchill 28 °F
Dew Point 19 °F
Humidity 76%
Rainfall 0.00 in
Snow Depth Not available.
UV 0.0 out of 12
Pollen 4.50 out of 12
Air Quality Not available.
Flu Activity Not available.
METAR KROG 282357Z 12003KT 10SM CLR 01/M04 A3015 RMK AO2 SLP219 T00111044 10050 20000 55001

More Conditions Fewer Conditions

Pressure 30.18 in
Visibility 10.0 miles
Clouds Clear
Windchill 28 °F
Dew Point 19 °F
Humidity 76%
Rainfall 0.00 in
Snow Depth Not available.
UV 0.0 out of 12
Pollen 4.50 out of 12
Air Quality Not available.
Flu Activity Not available.
METAR KROG 282357Z 12003KT 10SM CLR 01/M04 A3015 RMK AO2 SLP219 T00111044 10050 20000 55001

More Conditions Fewer Conditions

10-Day Weather Forecast

Almanac

Astronomy

Dec. 28, 2014 Rise Set
Actual Time
Civil Twilight
Nautical Twilight
Astronomical Twilight
Moon
Length of Visible Light
Length of Day
Tomorrow will be .
, % of the Moon is Illuminated

Today's Extremes

State Highs State Lows

Community

WunderPhotos

Upload Photos

1,781,477 photos uploaded!

WunderBlogs® & News

Nearby

Air Quality

  Air Quality AQ Index Pollutant
Not available.

Snow Depth

Station Depth Elevation

Earthquake Activity

City Distance Mag. Time & Date
Minimum magnitude displayed is 2.5.

Coastal Water Temperatures

Place Temperature

Nearby Weather Stations